Time;durP1;ratioP1;P1;durP2;ratioP2;P2;SDS_P1;SDS_P2;PMS_P1;PMS_P2;Temp;Humidity;BMP_temperature;BMP_pressure;BME280_temperature;BME280_humidity;BME280_pressure;Samples;Min_cycle;Max_cycle;Signal;HPM_P1;HPM_P2
2022/02/07 00:01:34;;;;;;;2.27;1.10;;;;;;;3.22;73.25;95420.21;1717831;82;25831;-81
2022/02/07 00:03:58;;;;;;;1.40;0.85;;;;;;;3.25;73.30;95425.12;1718187;82;25863;-82
2022/02/07 00:06:23;;;;;;;1.35;1.00;;;;;;;3.25;73.30;95423.28;1719002;82;25606;-82
2022/02/07 00:08:51;;;;;;;1.57;0.70;;;;;;;3.26;73.26;95420.88;1719433;82;26834;-82
2022/02/07 00:11:17;;;;;;;1.77;0.93;;;;;;;3.28;73.15;95413.19;1719223;82;25908;-82
2022/02/07 00:13:44;;;;;;;1.40;0.70;;;;;;;3.30;73.11;95413.80;1719428;82;25759;-82
2022/02/07 00:16:11;;;;;;;1.00;0.70;;;;;;;3.30;73.14;95394.62;1719076;83;26392;-81
2022/02/07 00:18:39;;;;;;;1.45;1.00;;;;;;;3.31;73.13;95406.10;1719297;83;25756;-82
2022/02/07 00:21:06;;;;;;;1.35;1.15;;;;;;;3.31;73.19;95399.44;1719285;83;27374;-82
2022/02/07 00:23:33;;;;;;;1.60;0.90;;;;;;;3.33;73.06;95389.37;1719320;83;25742;-82
2022/02/07 00:26:00;;;;;;;0.88;0.60;;;;;;;3.33;72.93;95391.53;1719469;82;25656;-82
2022/02/07 00:28:26;;;;;;;1.22;0.75;;;;;;;3.34;72.90;95384.34;1719390;83;26381;-82
2022/02/07 00:30:53;;;;;;;1.92;0.90;;;;;;;3.33;72.94;95374.70;1719464;83;25736;-82
2022/02/07 00:33:19;;;;;;;1.20;0.65;;;;;;;3.32;72.97;95371.73;1719165;83;27522;-81
2022/02/07 00:35:46;;;;;;;1.77;0.90;;;;;;;3.32;72.98;95372.55;1719362;83;25308;-81
2022/02/07 00:38:17;;;;;;;1.05;0.70;;;;;;;3.33;73.04;95369.38;1719444;82;25714;-83
2022/02/07 00:40:46;;;;;;;1.12;0.53;;;;;;;3.29;72.92;95380.98;1718912;82;25679;-81
2022/02/07 00:45:51;;;;;;;;;;;;;;;3.33;73.06;95352.86;1721957;83;27375;-81
2022/02/07 00:48:11;;;;;;;1.25;0.70;;;;;;;3.33;72.93;95345.38;1718830;83;26107;-80
2022/02/07 00:50:42;;;;;;;0.95;0.60;;;;;;;3.31;72.98;95350.92;1717666;83;25819;-81
2022/02/07 00:53:14;;;;;;;0.88;0.53;;;;;;;3.32;73.03;95346.41;1716533;83;26520;-82
2022/02/07 00:55:41;;;;;;;0.88;0.57;;;;;;;3.33;72.99;95352.04;1716717;83;25730;-81
2022/02/07 00:58:08;;;;;;;1.02;0.47;;;;;;;3.35;73.00;95348.64;1716524;82;27618;-81
2022/02/07 01:00:35;;;;;;;0.82;0.50;;;;;;;3.33;72.92;95352.04;1716451;83;25803;-81
2022/02/07 01:03:02;;;;;;;0.53;0.50;;;;;;;3.33;72.99;95352.86;1716607;83;25732;-81
2022/02/07 01:05:29;;;;;;;0.55;0.50;;;;;;;3.35;72.97;95348.13;1716478;83;25768;-80
2022/02/07 01:07:58;;;;;;;0.65;0.47;;;;;;;3.39;72.91;95353.83;1716552;83;25652;-81
2022/02/07 01:10:32;;;;;;;1.10;0.60;;;;;;;3.42;72.87;95355.55;1722499;83;26367;-82
2022/02/07 01:18:44;;;;;;;0.88;0.50;;;;;;;3.47;72.73;95358.92;1724228;83;25756;-81
2022/02/07 01:21:33;;;;;;;0.72;0.57;;;;;;;3.50;72.81;95357.16;1685660;84;25670;-81
2022/02/07 01:53:43;;;;;;;2.33;1.52;;;;;;;3.37;73.58;95310.58;1724368;83;26336;-81
2022/02/07 01:56:02;;;;;;;4.03;2.55;;;;;;;3.31;73.51;95314.10;1691882;84;25776;-81
2022/02/07 01:58:27;;;;;;;2.75;1.67;;;;;;;3.29;73.68;95309.50;1724062;83;25743;-81
2022/02/07 02:00:53;;;;;;;2.52;1.60;;;;;;;3.28;73.67;95304.68;1724669;83;25759;-81
2022/02/07 02:03:20;;;;;;;2.30;1.52;;;;;;;3.28;73.76;95290.53;1724688;82;26825;-81
2022/02/07 02:05:47;;;;;;;2.20;1.45;;;;;;;3.29;73.85;95293.50;1724611;83;25686;-81
2022/02/07 02:08:15;;;;;;;1.50;0.72;;;;;;;3.23;73.85;95281.35;1724709;83;25758;-81
2022/02/07 02:10:45;;;;;;;0.93;0.53;;;;;;;3.20;73.91;95276.96;1695648;84;26310;-82
2022/02/07 02:13:17;;;;;;;2.42;1.27;;;;;;;3.17;73.91;95265.39;1724592;82;25715;-82
2022/02/07 02:21:55;;;;;;;2.72;1.00;;;;;;;3.15;74.14;95234.12;1724513;83;25753;-81
2022/02/07 02:47:42;;;;;;;1.72;0.90;;;;;;;3.06;74.43;95274.91;1680516;85;25707;-81
2022/02/07 02:50:27;;;;;;;1.45;0.70;;;;;;;3.03;74.47;95271.85;1680466;85;26442;-82
2022/02/07 02:52:37;;;;;;;0.85;0.57;;;;;;;3.01;74.51;95270.77;1677621;85;26492;-82
2022/02/07 02:55:04;;;;;;;1.25;0.62;;;;;;;2.98;74.53;95272.52;1680554;84;28343;-82
2022/02/07 02:57:31;;;;;;;0.68;0.42;;;;;;;2.96;74.55;95265.77;1680436;85;25763;-81
2022/02/07 02:59:58;;;;;;;1.10;0.70;;;;;;;2.94;74.67;95261.16;1680531;85;25690;-82
2022/02/07 03:02:24;;;;;;;0.70;0.40;;;;;;;2.90;74.67;95272.77;1680541;85;25730;-81
2022/02/07 03:04:51;;;;;;;2.12;0.78;;;;;;;2.85;74.72;95260.10;1680494;85;25826;-81
2022/02/07 03:07:17;;;;;;;0.98;0.68;;;;;;;2.83;74.75;95256.02;1680505;85;27403;-81
2022/02/07 03:09:49;;;;;;;1.32;0.55;;;;;;;2.84;74.80;95246.48;1680422;84;25807;-81
2022/02/07 03:12:14;;;;;;;0.68;0.47;;;;;;;2.87;74.83;95246.56;1680115;85;25794;-81
2022/02/07 03:14:44;;;;;;;0.68;0.50;;;;;;;2.90;74.86;95233.61;1680464;85;25682;-81
2022/02/07 03:17:09;;;;;;;0.85;0.42;;;;;;;2.92;74.83;95226.73;1680227;85;25695;-81
2022/02/07 03:19:35;;;;;;;1.00;0.60;;;;;;;2.93;74.79;95224.88;1680550;85;27350;-81
2022/02/07 03:22:02;;;;;;;1.07;0.70;;;;;;;2.89;74.73;95229.85;1680429;85;25872;-81
2022/02/07 03:24:29;;;;;;;1.75;1.05;;;;;;;2.83;74.77;95237.36;1680453;85;25250;-81
2022/02/07 03:26:55;;;;;;;1.45;0.90;;;;;;;2.78;74.81;95243.33;1680221;85;26260;-81
2022/02/07 03:29:22;;;;;;;1.12;0.90;;;;;;;2.72;74.86;95248.20;1671517;85;25744;-81
2022/02/07 03:31:49;;;;;;;2.20;1.07;;;;;;;2.68;74.88;95245.66;1652845;86;27369;-81
2022/02/07 03:34:16;;;;;;;2.72;1.20;;;;;;;2.62;74.85;95245.70;1652766;86;25966;-81
2022/02/07 03:36:43;;;;;;;1.60;1.00;;;;;;;2.54;74.88;95240.92;1624634;87;25791;-81
2022/02/07 03:39:10;;;;;;;1.67;0.90;;;;;;;2.48;74.93;95237.80;1652831;86;26592;-81
2022/02/07 03:41:37;;;;;;;1.37;1.05;;;;;;;2.44;75.04;95221.93;1624605;88;25894;-81
2022/02/07 03:44:05;;;;;;;1.57;1.20;;;;;;;2.39;75.09;95211.12;1624771;87;27403;-81
2022/02/07 03:46:32;;;;;;;1.60;1.50;;;;;;;2.34;75.23;95202.95;1652540;86;26097;-80
2022/02/07 03:48:58;;;;;;;2.05;1.45;;;;;;;2.33;75.33;95189.33;1626126;87;25265;-81
2022/02/07 03:51:25;;;;;;;1.50;1.37;;;;;;;2.32;75.37;95182.38;1624707;88;25726;-80
2022/02/07 03:53:52;;;;;;;2.12;1.40;;;;;;;2.30;75.46;95180.44;1624841;88;25756;-81
2022/02/07 03:56:19;;;;;;;1.90;1.50;;;;;;;2.35;75.52;95189.94;1652835;86;27317;-81
2022/02/07 03:58:45;;;;;;;2.25;1.22;;;;;;;2.37;75.48;95194.55;1625991;86;25744;-81
2022/02/07 04:01:12;;;;;;;1.47;1.37;;;;;;;2.33;75.45;95198.66;1624756;88;25751;-81
2022/02/07 04:03:39;;;;;;;1.75;1.17;;;;;;;2.30;75.55;95195.08;1624743;88;25857;-81
2022/02/07 04:06:12;;;;;;;1.00;0.53;;;;;;;2.24;75.60;95195.95;1652903;86;25691;-80
2022/02/07 04:08:42;;;;;;;0.70;0.50;;;;;;;2.27;75.71;95179.55;1624801;87;28248;-81
2022/02/07 04:11:28;;;;;;;0.40;0.30;;;;;;;2.36;75.76;95190.25;1652854;86;25762;-81
2022/02/07 04:13:53;;;;;;;0.42;0.23;;;;;;;2.44;75.69;95188.65;1624900;87;25704;-80
2022/02/07 04:16:18;;;;;;;0.40;0.40;;;;;;;2.54;75.68;95192.98;1652549;86;25834;-81
2022/02/07 04:19:01;;;;;;;3.55;2.10;;;;;;;2.61;75.70;95197.46;1626090;86;25742;-81
2022/02/07 04:21:22;;;;;;;7.72;4.50;;;;;;;2.68;75.67;95218.20;1624910;88;28187;-80
2022/02/07 04:23:49;;;;;;;6.70;3.83;;;;;;;2.74;75.60;95220.83;1624713;88;25776;-80
2022/02/07 04:26:15;;;;;;;6.35;3.50;;;;;;;2.71;75.54;95225.77;1652902;86;25831;-81
2022/02/07 04:28:42;;;;;;;5.08;3.60;;;;;;;2.70;75.55;95229.45;1626151;86;25773;-81
2022/02/07 04:31:09;;;;;;;7.20;4.22;;;;;;;2.72;75.48;95235.39;1624850;88;26362;-83
2022/02/07 04:33:35;;;;;;;0.80;0.62;;;;;;;2.76;75.51;95240.60;1624783;88;27363;-81
2022/02/07 04:36:02;;;;;;;0.82;0.60;;;;;;;2.82;75.34;95246.39;1652881;86;25756;-81
2022/02/07 04:38:29;;;;;;;0.68;0.68;;;;;;;2.85;75.32;95240.12;1654291;86;25710;-81
2022/02/07 04:40:55;;;;;;;1.37;0.70;;;;;;;2.88;75.32;95237.03;1635223;87;26733;-81
2022/02/07 04:43:22;;;;;;;0.98;0.57;;;;;;;2.93;75.28;95247.53;1650968;86;25870;-82
2022/02/07 04:46:04;;;;;;;3.45;0.82;;;;;;;2.99;75.33;95234.18;1656640;86;28255;-81
2022/02/07 04:53:52;;;;;;;1.60;0.90;;;;;;;3.09;75.14;95227.02;1657021;86;26740;-81
2022/02/07 05:03:54;;;;;;;2.33;0.88;;;;;;;3.03;75.10;95251.34;1656950;86;26409;-81
2022/02/07 05:14:35;;;;;;;1.15;0.80;;;;;;;3.06;75.11;95257.59;1656933;86;25894;-81
2022/02/07 05:17:07;;;;;;;1.17;0.70;;;;;;;3.08;75.06;95276.84;1657040;86;25826;-81
2022/02/07 05:19:31;;;;;;;1.70;0.88;;;;;;;3.13;75.06;95278.36;1656490;86;26471;-80
2022/02/07 05:21:57;;;;;;;2.67;1.20;;;;;;;3.17;74.98;95272.88;1657086;86;25779;-81
2022/02/07 05:24:24;;;;;;;1.87;0.98;;;;;;;3.22;75.02;95269.57;1657080;86;27416;-81
2022/02/07 05:26:51;;;;;;;1.17;0.93;;;;;;;3.25;75.03;95268.63;1656991;86;25655;-82
2022/02/07 05:29:17;;;;;;;1.07;0.80;;;;;;;3.30;74.95;95281.80;1656990;86;25732;-81
2022/02/07 05:31:44;;;;;;;2.05;1.25;;;;;;;3.32;74.95;95287.73;1657026;86;25683;-80
2022/02/07 05:34:11;;;;;;;3.10;1.10;;;;;;;3.32;74.91;95283.22;1657090;86;26073;-81
2022/02/07 05:36:42;;;;;;;1.40;0.88;;;;;;;3.32;75.03;95281.08;1657668;86;27365;-81
2022/02/07 05:39:06;;;;;;;9.68;4.30;;;;;;;3.34;75.06;95289.68;1659132;86;25775;-80
2022/02/07 05:41:34;;;;;;;11.38;5.33;;;;;;;3.31;74.95;95292.77;1659836;86;25770;-80
2022/02/07 05:44:00;;;;;;;11.25;5.97;;;;;;;3.30;75.02;95299.95;1659765;86;26464;-80
2022/02/07 05:46:27;;;;;;;8.15;3.62;;;;;;;3.27;75.04;95303.05;1659908;86;25823;-80
2022/02/07 05:48:54;;;;;;;3.92;2.20;;;;;;;3.25;75.12;95301.14;1659943;86;27419;-81
2022/02/07 05:51:20;;;;;;;3.50;2.25;;;;;;;3.27;75.28;95313.71;1659799;86;26147;-80
2022/02/07 05:53:47;;;;;;;8.23;2.65;;;;;;;3.26;75.27;95319.56;1659805;86;25824;-80
2022/02/07 05:56:13;;;;;;;5.37;2.80;;;;;;;3.25;75.33;95316.62;1659587;86;25803;-81
2022/02/07 05:58:40;;;;;;;4.50;2.45;;;;;;;3.23;75.40;95321.34;1659818;86;25700;-81
2022/02/07 06:01:07;;;;;;;8.95;4.28;;;;;;;3.24;75.55;95322.98;1659896;86;27439;-82
2022/02/07 06:03:33;;;;;;;8.33;3.85;;;;;;;3.26;75.60;95328.08;1659732;86;25927;-81
2022/02/07 06:06:01;;;;;;;9.68;5.78;;;;;;;3.23;75.49;95326.68;1659886;86;26363;-82
2022/02/07 06:08:29;;;;;;;18.65;8.85;;;;;;;3.22;75.50;95325.05;1659793;86;25839;-82
2022/02/07 06:10:56;;;;;;;21.02;11.45;;;;;;;3.20;75.61;95317.77;1659892;86;25755;-81
2022/02/07 06:13:22;;;;;;;18.77;11.10;;;;;;;3.19;75.53;95329.98;1659994;86;27183;-82
2022/02/07 06:15:49;;;;;;;16.85;8.40;;;;;;;3.15;75.50;95331.44;1659858;86;25685;-81
2022/02/07 06:18:18;;;;;;;22.13;9.45;;;;;;;3.11;75.59;95332.41;1659697;86;25714;-83
2022/02/07 06:20:44;;;;;;;26.90;12.28;;;;;;;3.10;75.69;95334.77;1659793;86;25697;-82
2022/02/07 06:23:11;;;;;;;21.00;10.45;;;;;;;3.07;75.64;95341.85;1659958;86;25679;-82
2022/02/07 06:25:37;;;;;;;17.55;7.60;;;;;;;3.05;75.67;95344.42;1659865;86;27373;-82
2022/02/07 06:28:04;;;;;;;40.30;19.32;;;;;;;3.02;75.71;95348.88;1659793;86;25794;-82
2022/02/07 06:30:31;;;;;;;26.17;12.80;;;;;;;2.99;75.80;95348.78;1659886;86;25705;-82
2022/02/07 06:32:58;;;;;;;30.48;14.53;;;;;;;3.00;75.91;95351.75;1659838;86;25765;-82
2022/02/07 06:35:24;;;;;;;41.92;21.27;;;;;;;3.00;75.88;95365.59;1659827;85;25680;-82
2022/02/07 06:37:51;;;;;;;47.00;23.98;;;;;;;2.98;75.86;95367.13;1658538;85;27421;-82
2022/02/07 06:40:18;;;;;;;61.77;30.65;;;;;;;2.98;76.01;95380.46;1657586;86;25870;-82
2022/02/07 06:42:45;;;;;;;55.50;27.15;;;;;;;2.97;75.97;95380.67;1657937;86;25708;-81
2022/02/07 06:45:11;;;;;;;63.63;30.02;;;;;;;2.95;76.02;95384.88;1657763;86;25699;-81
2022/02/07 06:47:38;;;;;;;41.02;18.98;;;;;;;2.96;76.13;95379.85;1657618;86;25799;-81
2022/02/07 06:50:05;;;;;;;34.20;16.42;;;;;;;2.97;76.15;95388.66;1657664;86;27448;-82
2022/02/07 06:52:32;;;;;;;25.62;11.35;;;;;;;2.99;76.27;95390.09;1658060;86;25696;-82
2022/02/07 06:54:58;;;;;;;32.98;15.78;;;;;;;2.97;76.22;95405.98;1657896;86;25740;-82
2022/02/07 06:57:25;;;;;;;21.62;10.38;;;;;;;2.97;76.24;95400.14;1658168;86;25708;-82
2022/02/07 06:59:52;;;;;;;30.23;13.80;;;;;;;2.98;76.36;95412.44;1658140;86;25724;-82
2022/02/07 07:02:21;;;;;;;42.40;22.27;;;;;;;3.01;76.57;95420.02;1662580;86;28247;-83
2022/02/07 07:04:48;;;;;;;17.00;10.45;;;;;;;3.06;76.71;95431.36;1663071;85;25304;-83
2022/02/07 07:07:16;;;;;;;4.53;3.65;;;;;;;3.08;76.82;95463.95;1680458;85;25827;-82
2022/02/07 07:09:45;;;;;;;1.85;1.55;;;;;;;3.12;76.55;95479.84;1651331;86;26481;-84
2022/02/07 07:12:12;;;;;;;3.85;1.90;;;;;;;3.01;76.07;95551.96;1680264;85;25760;-86
2022/02/07 07:14:46;;;;;;;1.80;1.12;;;;;;;2.77;75.91;95567.28;1652778;85;27392;-85
2022/02/07 07:17:08;;;;;;;2.87;1.60;;;;;;;2.28;75.65;95585.84;1662349;86;25778;-84
2022/02/07 07:19:35;;;;;;;2.70;1.80;;;;;;;2.04;75.90;95586.44;1663154;86;25811;-84
2022/02/07 07:22:01;;;;;;;3.72;1.70;;;;;;;1.89;76.07;95604.41;1663088;86;25847;-83
2022/02/07 07:24:29;;;;;;;3.60;2.00;;;;;;;1.74;76.06;95607.23;1663093;86;25715;-82
2022/02/07 07:26:56;;;;;;;3.72;1.50;;;;;;;1.56;76.22;95620.28;1663021;86;27623;-84
2022/02/07 07:29:29;;;;;;;2.40;1.45;;;;;;;1.42;76.44;95622.05;1662841;85;25834;-82
2022/02/07 07:31:57;;;;;;;3.22;1.22;;;;;;;1.31;76.58;95635.91;1662760;85;25715;-84
2022/02/07 07:34:22;;;;;;;2.65;2.10;;;;;;;1.26;76.81;95640.98;1662707;85;25823;-86
2022/02/07 07:36:48;;;;;;;4.22;2.70;;;;;;;1.17;76.98;95645.65;1657990;85;25749;-85
2022/02/07 07:39:17;;;;;;;2.62;1.67;;;;;;;1.09;77.17;95642.62;1656770;86;27396;-86
2022/02/07 07:41:46;;;;;;;3.65;2.08;;;;;;;1.07;77.16;95633.23;1656378;86;26009;-84
2022/02/07 07:44:22;;;;;;;4.17;2.45;;;;;;;1.04;77.31;95634.43;1656783;86;25703;-84
2022/02/07 07:46:41;;;;;;;5.70;2.77;;;;;;;1.05;77.46;95634.75;1655359;86;25882;-84
2022/02/07 07:49:12;;;;;;;6.78;2.95;;;;;;;1.04;77.56;95626.97;1656939;86;25694;-83
2022/02/07 07:51:54;;;;;;;7.53;3.00;;;;;;;1.06;77.68;95624.44;1656307;86;27649;-83
2022/02/07 07:54:24;;;;;;;5.65;3.10;;;;;;;1.12;77.79;95616.67;1655204;86;26359;-81
2022/02/07 08:02:18;;;;;;;7.37;2.67;;;;;;;1.19;77.90;95648.11;1656985;86;25798;-83
2022/02/07 08:04:47;;;;;;;4.15;2.05;;;;;;;1.24;78.02;95658.96;1656854;86;27426;-83
2022/02/07 08:07:19;;;;;;;4.10;2.12;;;;;;;1.29;78.00;95677.81;1656868;86;25830;-82
2022/02/07 08:12:27;;;;;;;12.80;5.67;;;;;;;1.30;77.86;95676.80;1656733;86;25874;-83
2022/02/07 08:14:55;;;;;;;12.00;5.72;;;;;;;1.31;77.90;95685.09;1656836;86;25851;-84
2022/02/07 08:17:23;;;;;;;11.68;6.67;;;;;;;1.35;77.85;95687.65;1657446;86;27467;-83
2022/02/07 08:19:51;;;;;;;5.25;3.60;;;;;;;1.30;77.73;95697.56;1656657;86;25669;-84
2022/02/07 08:22:19;;;;;;;4.17;2.77;;;;;;;1.32;77.65;95704.02;1657541;86;25743;-83
2022/02/07 08:24:46;;;;;;;5.53;3.10;;;;;;;1.32;77.56;95711.98;1656803;86;25765;-84
2022/02/07 08:27:13;;;;;;;4.70;2.95;;;;;;;1.36;77.67;95721.20;1656812;86;25843;-85
2022/02/07 08:29:39;;;;;;;4.20;2.40;;;;;;;1.39;77.55;95729.61;1657527;86;27327;-84
2022/02/07 08:32:07;;;;;;;2.75;2.00;;;;;;;1.32;77.31;95739.39;1656607;86;25816;-82
2022/02/07 08:34:34;;;;;;;4.03;2.60;;;;;;;1.33;77.33;95745.50;1656784;86;25910;-84
2022/02/07 08:37:02;;;;;;;5.55;2.98;;;;;;;1.33;77.19;95746.83;1657294;86;25879;-85
2022/02/07 08:39:29;;;;;;;5.12;3.20;;;;;;;1.31;77.08;95760.85;1656699;86;25607;-83
2022/02/07 08:41:56;;;;;;;6.78;3.05;;;;;;;1.30;77.08;95757.88;1655994;86;27415;-83
2022/02/07 08:44:26;;;;;;;5.70;3.45;;;;;;;1.31;77.04;95760.34;1657915;86;26445;-80
2022/02/07 08:46:52;;;;;;;6.72;3.45;;;;;;;1.33;76.92;95766.27;1657965;86;25767;-83
2022/02/07 08:49:18;;;;;;;6.80;3.45;;;;;;;1.38;76.87;95755.06;1656706;86;25874;-91
2022/02/07 08:51:45;;;;;;;8.65;4.30;;;;;;;1.40;76.82;95751.70;1657450;86;25656;-83
2022/02/07 08:54:18;;;;;;;7.97;3.55;;;;;;;1.40;76.71;95750.38;1656758;86;27359;-85
2022/02/07 08:56:58;;;;;;;8.80;5.08;;;;;;;1.40;76.60;95765.81;1654213;86;26486;-84
2022/02/07 08:59:20;;;;;;;11.03;4.62;;;;;;;1.44;76.47;95774.23;1655377;86;25443;-83
2022/02/07 09:02:03;;;;;;;11.53;5.37;;;;;;;1.51;76.40;95777.75;1656773;86;25963;-89
2022/02/07 09:04:44;;;;;;;11.10;5.17;;;;;;;1.57;76.40;95780.95;1654496;86;25707;-83
2022/02/07 09:07:10;;;;;;;7.35;4.12;;;;;;;1.66;76.43;95785.63;1654240;86;28357;-86
2022/02/07 09:09:32;;;;;;;6.92;3.52;;;;;;;1.74;76.28;95790.78;1655960;86;26430;-87
2022/02/07 09:12:00;;;;;;;12.07;4.12;;;;;;;1.80;76.11;95805.97;1656831;86;25749;-84
2022/02/07 09:14:27;;;;;;;10.20;4.55;;;;;;;1.89;76.03;95815.44;1656792;86;25708;-84
2022/02/07 09:16:54;;;;;;;12.47;4.78;;;;;;;1.98;75.85;95822.74;1656791;86;25740;-81
2022/02/07 09:19:20;;;;;;;10.30;4.45;;;;;;;2.14;75.75;95829.91;1656843;86;27439;-82
2022/02/07 09:21:49;;;;;;;9.45;4.72;;;;;;;2.23;75.60;95822.56;1656730;86;26504;-84
2022/02/07 09:24:15;;;;;;;7.70;3.90;;;;;;;2.26;75.28;95821.36;1657267;86;25735;-83
2022/02/07 09:26:43;;;;;;;5.80;3.00;;;;;;;2.29;75.09;95835.61;1662015;86;25818;-81
2022/02/07 09:29:10;;;;;;;8.68;3.67;;;;;;;2.27;74.96;95826.48;1659057;85;25771;-81
2022/02/07 09:31:37;;;;;;;7.37;3.98;;;;;;;2.29;74.85;95837.77;1656709;86;28323;-81
2022/02/07 09:34:04;;;;;;;7.22;3.58;;;;;;;2.34;74.75;95823.33;1656803;86;25768;-84
2022/02/07 09:36:30;;;;;;;10.85;5.70;;;;;;;2.37;74.62;95825.60;1656813;86;25784;-81
2022/02/07 09:38:57;;;;;;;8.13;3.98;;;;;;;2.37;74.50;95836.77;1658331;86;25743;-81
2022/02/07 09:41:29;;;;;;;6.78;3.67;;;;;;;2.31;74.30;95849.02;1659047;86;25794;-82
2022/02/07 09:43:53;;;;;;;10.23;3.87;;;;;;;2.29;74.13;95851.58;1658948;86;27337;-83
2022/02/07 09:46:34;;;;;;;8.88;3.83;;;;;;;2.27;74.06;95852.28;1659522;86;25744;-82
2022/02/07 09:48:52;;;;;;;6.90;4.22;;;;;;;2.23;73.86;95865.16;1657973;86;25810;-82
2022/02/07 09:51:19;;;;;;;8.18;3.62;;;;;;;2.24;73.86;95873.47;1659600;86;25699;-81
2022/02/07 09:53:46;;;;;;;7.03;3.95;;;;;;;2.24;73.72;95880.63;1659484;86;25668;-82
2022/02/07 09:56:13;;;;;;;7.40;4.17;;;;;;;2.22;73.58;95891.47;1659795;86;27387;-84
2022/02/07 09:58:40;;;;;;;10.35;4.42;;;;;;;2.21;73.49;95895.14;1659731;86;25800;-82
2022/02/07 10:01:11;;;;;;;10.08;5.60;;;;;;;2.17;73.38;95894.70;1659798;86;25785;-83
2022/02/07 10:03:48;;;;;;;9.28;5.53;;;;;;;2.15;73.26;95897.27;1659531;86;25801;-83
2022/02/07 10:06:29;;;;;;;6.58;3.80;;;;;;;2.14;73.09;95895.63;1659519;86;25758;-83
2022/02/07 10:08:56;;;;;;;9.55;4.67;;;;;;;2.07;73.08;95912.05;1657402;86;28184;-82
2022/02/07 10:11:33;;;;;;;6.92;3.52;;;;;;;2.01;72.99;95916.83;1658223;86;25842;-82
2022/02/07 10:36:25;;;;;;;10.40;4.70;;;;;;;2.15;72.85;95918.06;1659663;86;27390;-83
2022/02/07 10:39:10;;;;;;;9.53;4.97;;;;;;;2.18;72.77;95917.66;1655570;86;25716;-83
2022/02/07 10:41:56;;;;;;;9.28;4.67;;;;;;;2.07;72.78;95941.33;1653259;86;25764;-84
2022/02/07 10:44:44;;;;;;;11.35;5.28;;;;;;;1.94;73.07;95938.06;1654316;86;25884;-83
2022/02/07 10:47:19;;;;;;;28.50;16.60;;;;;;;1.91;73.45;95947.78;1656068;86;25696;-84
2022/02/07 10:50:01;;;;;;;22.27;14.23;;;;;;;1.92;73.30;95940.12;1655336;86;27527;-83
2022/02/07 10:52:29;;;;;;;18.00;10.48;;;;;;;1.95;73.23;95946.87;1656892;86;25803;-83
2022/02/07 10:54:55;;;;;;;8.65;5.97;;;;;;;2.00;73.23;95952.45;1656893;86;25692;-81
2022/02/07 10:57:23;;;;;;;10.03;5.42;;;;;;;2.05;73.20;95951.38;1656839;86;26355;-82
2022/02/07 10:59:50;;;;;;;6.95;3.67;;;;;;;2.07;73.24;95952.80;1656844;86;25739;-83
2022/02/07 11:02:59;;;;;;;10.28;4.50;;;;;;;2.03;73.08;95953.40;1656812;86;28220;-82
2022/02/07 11:04:59;;;;;;;6.45;3.60;;;;;;;2.07;73.12;95961.29;1651149;86;25718;-82
2022/02/07 11:07:20;;;;;;;8.20;4.03;;;;;;;2.15;73.11;95966.48;1655684;86;25960;-81
2022/02/07 11:10:38;;;;;;;9.98;4.78;;;;;;;2.21;72.98;95965.70;1656875;86;25752;-84
2022/02/07 11:12:41;;;;;;;11.97;4.83;;;;;;;2.18;72.79;95977.55;1649597;86;25700;-81
2022/02/07 11:14:59;;;;;;;10.85;4.53;;;;;;;2.18;72.77;95982.05;1627784;86;27511;-83
2022/02/07 11:21:06;;;;;;;12.00;5.00;;;;;;;2.09;72.55;95985.88;1656912;86;25799;-80
2022/02/07 11:28:25;;;;;;;8.45;3.50;;;;;;;2.44;72.58;96006.20;1656776;86;28357;-85
2022/02/07 11:30:57;;;;;;;9.13;4.50;;;;;;;2.35;72.58;96017.20;1656828;86;25907;-82
2022/02/07 11:33:35;;;;;;;11.85;4.25;;;;;;;2.10;72.86;96022.95;1656858;86;25802;-82
2022/02/07 11:36:04;;;;;;;10.40;4.78;;;;;;;1.91;73.21;96026.28;1653269;86;27025;-82
2022/02/07 11:38:31;;;;;;;19.42;10.72;;;;;;;1.70;73.57;96035.06;1630871;86;25756;-83
2022/02/07 11:41:06;;;;;;;18.90;11.75;;;;;;;1.66;74.02;96044.97;1656590;86;27421;-85
2022/02/07 11:43:37;;;;;;;8.85;6.58;;;;;;;1.65;74.38;96058.77;1656500;86;25812;-83
2022/02/07 11:46:10;;;;;;;9.28;5.67;;;;;;;1.57;74.36;96057.54;1631554;86;25795;-82
2022/02/07 11:48:47;;;;;;;14.87;8.50;;;;;;;1.47;74.39;96065.00;1656842;86;25784;-83
2022/02/07 11:51:29;;;;;;;14.25;11.20;;;;;;;1.39;74.70;96067.78;1656907;86;25560;-85
2022/02/07 11:54:03;;;;;;;17.75;9.78;;;;;;;1.39;74.91;96066.45;1656871;86;28270;-85
2022/02/07 11:59:15;;;;;;;16.80;9.17;;;;;;;1.39;75.34;96079.75;1657098;86;25808;-81
2022/02/07 12:02:02;;;;;;;14.15;6.92;;;;;;;1.45;75.42;96085.63;1655749;86;25725;-82
2022/02/07 12:04:42;;;;;;;15.88;6.10;;;;;;;1.50;75.47;96081.92;1656266;86;25818;-82
2022/02/07 12:07:24;;;;;;;18.05;7.20;;;;;;;1.53;75.30;96084.21;1656399;86;28053;-81
2022/02/07 12:10:15;;;;;;;11.45;4.92;;;;;;;1.45;75.13;96097.59;1656422;86;25871;-80
2022/02/07 12:12:44;;;;;;;;;;;;;;;1.31;75.07;96095.31;1659052;86;25826;-80
2022/02/07 12:15:43;;;;;;;8.35;4.47;;;;;;;1.22;75.40;96115.50;1656926;86;25744;-81
2022/02/07 12:18:20;;;;;;;12.65;6.83;;;;;;;1.13;75.42;96113.96;1655405;86;25742;-80
2022/02/07 12:20:50;;;;;;;13.03;7.42;;;;;;;1.04;75.73;96123.37;1656816;86;27445;-83
2022/02/07 12:23:30;;;;;;;32.98;17.05;;;;;;;1.06;75.87;96125.34;1656611;86;25840;-82
2022/02/07 12:26:12;;;;;;;37.67;19.30;;;;;;;1.09;76.17;96124.95;1656844;86;25769;-82
2022/02/07 12:28:49;;;;;;;22.98;10.88;;;;;;;1.15;76.24;96124.73;1656967;85;25875;-82
2022/02/07 12:31:21;;;;;;;14.15;8.05;;;;;;;1.19;76.27;96130.02;1656601;86;25732;-83
2022/02/07 12:34:06;;;;;;;16.93;10.28;;;;;;;1.24;76.35;96137.42;1657689;86;27391;-85
2022/02/07 12:36:35;;;;;;;28.77;16.55;;;;;;;1.27;76.35;96141.05;1655045;86;25852;-84
2022/02/07 12:39:06;;;;;;;21.60;11.55;;;;;;;1.31;76.29;96143.16;1655457;86;25758;-83
2022/02/07 12:41:36;;;;;;;23.30;12.68;;;;;;;1.32;76.04;96147.47;1655209;86;25964;-81
2022/02/07 12:44:06;;;;;;;30.25;15.35;;;;;;;1.32;76.07;96160.77;1659567;86;25764;-83
2022/02/07 12:46:34;;;;;;;24.10;14.30;;;;;;;1.39;76.10;96160.84;1659673;86;28199;-84
2022/02/07 12:49:09;;;;;;;44.55;18.82;;;;;;;1.43;76.09;96165.62;1659185;86;25811;-83
2022/02/07 12:51:42;;;;;;;54.30;25.10;;;;;;;1.51;75.99;96168.67;1659105;86;25798;-81
2022/02/07 12:54:05;;;;;;;29.72;14.60;;;;;;;1.52;75.87;96172.98;1659077;86;25901;-83
2022/02/07 12:56:32;;;;;;;31.73;15.00;;;;;;;1.46;75.79;96177.70;1659822;86;25689;-82
2022/02/07 12:59:01;;;;;;;36.88;18.67;;;;;;;1.42;75.67;96179.09;1660306;86;27391;-82
2022/02/07 13:01:31;;;;;;;26.50;14.35;;;;;;;1.42;75.82;96191.06;1660129;85;25251;-82
2022/02/07 13:04:17;;;;;;;19.60;8.98;;;;;;;1.48;75.84;96182.83;1660275;86;25863;-82
2022/02/07 13:06:54;;;;;;;24.90;12.93;;;;;;;1.48;75.86;96191.64;1657264;86;25876;-82
2022/02/07 13:09:33;;;;;;;20.65;10.58;;;;;;;1.49;75.88;96189.30;1660607;85;25772;-83
2022/02/07 13:12:21;;;;;;;18.40;10.30;;;;;;;1.53;75.93;96192.42;1660102;86;28300;-84
2022/02/07 13:14:49;;;;;;;13.78;7.35;;;;;;;1.57;75.91;96197.17;1656542;86;25720;-84
2022/02/07 13:17:22;;;;;;;18.67;8.63;;;;;;;1.59;75.86;96211.62;1659664;86;25856;-87
2022/02/07 13:19:50;;;;;;;15.45;6.97;;;;;;;1.59;75.74;96215.11;1660794;86;27493;-81
2022/02/07 13:22:18;;;;;;;9.83;5.15;;;;;;;1.42;75.52;96226.95;1656741;86;25676;-83
2022/02/07 13:24:47;;;;;;;9.85;4.80;;;;;;;1.29;75.54;96236.07;1660276;86;27396;-81
2022/02/07 13:27:19;;;;;;;6.85;4.17;;;;;;;1.18;75.83;96241.33;1659461;86;25306;-82
2022/02/07 13:29:51;;;;;;;9.20;5.03;;;;;;;1.15;75.93;96243.52;1659829;86;25862;-85
2022/02/07 13:32:22;;;;;;;11.68;5.72;;;;;;;1.11;76.07;96248.86;1659824;86;26709;-81
2022/02/07 13:34:49;;;;;;;13.25;5.35;;;;;;;1.09;76.22;96257.84;1658380;86;25745;-82
2022/02/07 13:37:21;;;;;;;8.70;3.98;;;;;;;1.06;76.08;96256.89;1659706;86;27417;-82
2022/02/07 13:40:15;;;;;;;9.73;4.10;;;;;;;1.05;76.01;96267.20;1659558;86;33197;-81
2022/02/07 13:42:48;;;;;;;6.87;3.55;;;;;;;1.07;75.92;96257.22;1660065;86;25745;-84
2022/02/07 13:45:24;;;;;;;6.37;3.22;;;;;;;1.04;75.72;96276.17;1657757;86;25807;-82
2022/02/07 13:47:58;;;;;;;11.83;3.90;;;;;;;1.05;75.69;96271.18;1657992;86;25838;-84
2022/02/07 13:50:33;;;;;;;9.23;4.25;;;;;;;1.06;75.68;96279.98;1660511;86;27421;-83
2022/02/07 13:53:04;;;;;;;12.73;4.85;;;;;;;1.09;75.69;96283.09;1660416;86;25751;-84
2022/02/07 13:55:40;;;;;;;10.10;5.10;;;;;;;1.13;75.73;96292.03;1660572;86;25751;-83
2022/02/07 13:58:14;;;;;;;9.18;4.97;;;;;;;1.19;75.62;96288.17;1659834;86;25834;-84
2022/02/07 14:00:51;;;;;;;9.43;4.75;;;;;;;1.20;75.47;96299.63;1659702;86;25685;-83